Aérodrome :
LOGIN :

S'inscrire | Disclaimer

   EN    FR    IT 

 










Légende :    VFR   VFR Marginal   IFR   IFR Intensif   IFR Très Intensif
Visi : 
Plafond : 
>= 8 km
>= 3000ft
5 à 8 km
1000 à 3000 ft
1500m à 5 km
500 à 1000 ft
800 à 1500m
200 à 500 ft
< 800m
< 200 ft
Symboles :   Orages  Brouillard  Fortes neiges  Fortes précipitations  Vent > 20 kt
SIGMETs :   Divers  Orages  Givrage  Turbulence  Onde Orograph.  Cendres Volcan.







- Altitude de l'aérodrome : 20 ft


EBFN - Koksijde

DERNIER METAR :
  • 232134Z AUTO 23014KT 3200 DZ OVC011/// 12/11 Q1017 YLO

METARs EXPIRÉS :
  • 232125Z AUTO 23014KT 9999 OVC011/// 12/11 Q1017 GRN
  • 232055Z AUTO 23017KT 9999 OVC008/// 12/11 Q1017 GRN
  • 232025Z AUTO 23014KT 3900 -RA OVC011/// 12/11 Q1017 GRN
  • 232019Z AUTO 24013KT 9999 OVC013/// 12/11 Q1017 GRN
  • 231955Z AUTO 24017KT 9999 OVC004/// 12/11 Q1017 YLO
  • 231925Z AUTO 21014KT 2200 DZ OVC004/// 11/11 Q1017 YLO
  • 231855Z AUTO 20013KT 2600 BR OVC003/// 10/10 Q1017 YLO

TAF COR TAF EBFN
Valide du 23 à 19h jusqu'au 24 à 07h UTC


232048Z 2319/2407 23015KT 8000 BKN010
TEMPO 2319/2407 23020G35KT 4000 -RADZ BKN006 BKN060
PROB40
TEMPO 2319/2407 2000 DZ OVC006
BECMG 2405/2407 20020G45KT
Pas de NOTAMs connus pour ce terrain.



MET'MAP, la Météo Aéronautique d'un coup d'oeil ! - Copyright ORBIFLY Décembre 2007 - Disclaimer

ORBIFLY MET'MAP TEAM :

Programmation & Développement : Alexandra Zaïnal
Conception & Développement : Baudouin d'Aumeries
Co-Programmation & Développement : Marc-Olivier Méhu
Soutien technique & logistique : Manuel Goepfert

Contact : metmap@orbifly.com




SOURCES & CREDITS :

   NOAA